createdAt,value
2023-04-24T00:01:05.807Z,2.50
2023-04-24T00:03:34.868Z,2.35
2023-04-24T00:06:04.304Z,5.10
2023-04-24T00:08:32.696Z,3.10
2023-04-24T00:11:01.023Z,1.80
2023-04-24T00:13:30.340Z,5.10
2023-04-24T00:15:58.780Z,3.08
2023-04-24T00:18:27.257Z,3.70
2023-04-24T00:20:55.616Z,2.60
2023-04-24T00:23:23.938Z,2.28
2023-04-24T00:25:52.229Z,2.55
2023-04-24T00:28:21.094Z,3.55
2023-04-24T00:30:49.323Z,1.60
2023-04-24T00:33:17.766Z,3.08
2023-04-24T00:35:46.268Z,3.70
2023-04-24T00:38:14.671Z,1.88
2023-04-24T00:40:42.952Z,1.98
2023-04-24T00:43:11.721Z,2.08
2023-04-24T00:45:40.065Z,4.25
2023-04-24T00:48:09.731Z,2.25
2023-04-24T00:50:41.453Z,4.05
2023-04-24T00:53:10.041Z,3.53
2023-04-24T00:55:39.263Z,1.60
2023-04-24T00:58:07.588Z,4.13
2023-04-24T01:00:36.955Z,2.50
2023-04-24T01:03:08.033Z,4.05
2023-04-24T01:05:36.584Z,3.67
2023-04-24T01:08:05.424Z,3.35
2023-04-24T01:10:37.108Z,3.95
2023-04-24T01:13:05.563Z,3.95
2023-04-24T01:15:33.928Z,3.78
2023-04-24T01:18:02.283Z,3.10
2023-04-24T01:20:31.959Z,4.47
2023-04-24T01:23:00.558Z,4.00
2023-04-24T01:25:30.239Z,2.55
2023-04-24T01:27:59.188Z,3.60
2023-04-24T01:30:28.502Z,4.20
2023-04-24T01:32:57.972Z,3.55
2023-04-24T01:35:27.222Z,2.90
2023-04-24T01:37:55.648Z,4.03
2023-04-24T01:40:24.059Z,3.85
2023-04-24T01:42:53.250Z,4.05
2023-04-24T01:45:21.866Z,2.92
2023-04-24T01:47:51.860Z,3.50
2023-04-24T01:50:20.808Z,3.50
2023-04-24T01:52:49.084Z,3.50
2023-04-24T01:55:17.375Z,3.90
2023-04-24T01:57:45.609Z,2.95
2023-04-24T02:00:14.226Z,4.75
2023-04-24T02:02:45.709Z,4.30
2023-04-24T02:05:16.110Z,3.30
2023-04-24T02:07:44.401Z,3.88
2023-04-24T02:10:13.144Z,4.55
2023-04-24T02:12:41.471Z,4.03
2023-04-24T02:15:10.672Z,5.05
2023-04-24T02:17:38.916Z,4.20
2023-04-24T02:20:10.468Z,5.43
2023-04-24T02:22:38.789Z,3.97
2023-04-24T02:25:07.853Z,2.97
2023-04-24T02:27:36.098Z,6.43
2023-04-24T02:30:05.074Z,6.53
2023-04-24T02:32:33.340Z,7.63
2023-04-24T02:35:01.602Z,8.25
2023-04-24T02:37:29.912Z,5.63
2023-04-24T02:39:58.209Z,5.32
2023-04-24T02:42:26.591Z,5.38
2023-04-24T02:44:54.965Z,5.93
2023-04-24T02:47:23.383Z,3.65
2023-04-24T02:49:51.641Z,4.80
2023-04-24T02:52:19.888Z,4.45
2023-04-24T02:54:48.155Z,5.32
2023-04-24T02:57:16.987Z,6.55
2023-04-24T02:59:45.297Z,4.82
2023-04-24T03:02:14.035Z,6.65
2023-04-24T03:04:42.454Z,6.50
2023-04-24T03:07:11.154Z,5.10
2023-04-24T03:09:43.474Z,5.00
2023-04-24T03:12:11.981Z,8.55
2023-04-24T03:14:40.755Z,5.47
2023-04-24T03:17:08.984Z,4.20
2023-04-24T03:19:37.326Z,7.63
2023-04-24T03:22:06.229Z,6.43
2023-04-24T03:24:34.500Z,6.43
2023-04-24T03:27:02.728Z,6.18
2023-04-24T03:29:31.115Z,7.78
2023-04-24T03:31:59.464Z,7.55
2023-04-24T03:34:28.273Z,5.40
2023-04-24T03:36:56.567Z,5.72
2023-04-24T03:39:24.871Z,5.13
2023-04-24T03:41:53.100Z,6.90
2023-04-24T03:44:21.424Z,6.82
2023-04-24T03:46:49.788Z,7.38
2023-04-24T03:49:18.066Z,7.82
2023-04-24T03:51:46.343Z,6.55
2023-04-24T03:54:15.567Z,5.18
2023-04-24T03:56:43.844Z,8.93
2023-04-24T03:59:12.220Z,7.85
2023-04-24T04:01:43.903Z,7.30
2023-04-24T04:04:12.643Z,8.80
2023-04-24T04:06:41.747Z,8.52
2023-04-24T04:09:10.542Z,7.03
2023-04-24T04:11:39.042Z,9.93
2023-04-24T04:14:07.911Z,12.68
2023-04-24T04:16:38.130Z,9.52
2023-04-24T04:19:07.312Z,8.50
2023-04-24T04:21:35.601Z,11.15
2023-04-24T04:24:03.939Z,7.25
2023-04-24T04:26:34.434Z,9.73
2023-04-24T04:29:02.834Z,9.27
2023-04-24T04:31:32.066Z,8.35
2023-04-24T04:34:00.780Z,11.23
2023-04-24T04:36:31.226Z,8.82
2023-04-24T04:39:01.228Z,14.23
2023-04-24T04:41:29.976Z,8.88
2023-04-24T04:44:00.478Z,9.20
2023-04-24T04:46:28.735Z,11.95
2023-04-24T04:48:58.604Z,10.68
2023-04-24T04:51:26.965Z,11.38
2023-04-24T04:53:55.532Z,12.75
2023-04-24T04:56:24.194Z,8.13
2023-04-24T04:58:52.431Z,11.52
2023-04-24T05:01:21.112Z,12.27
2023-04-24T05:03:49.551Z,9.80
2023-04-24T05:06:18.099Z,10.32
2023-04-24T05:08:46.594Z,13.32
2023-04-24T05:11:14.971Z,13.15
2023-04-24T05:13:43.305Z,8.93
2023-04-24T05:16:11.789Z,9.45
2023-04-24T05:18:40.155Z,12.88
2023-04-24T05:21:08.569Z,18.85
2023-04-24T05:23:36.869Z,15.52
2023-04-24T05:26:07.355Z,9.57
2023-04-24T05:28:38.379Z,12.10
2023-04-24T05:31:07.344Z,12.30
2023-04-24T05:33:35.668Z,11.32
2023-04-24T05:36:03.946Z,10.40
2023-04-24T05:38:32.284Z,10.38
2023-04-24T05:41:00.573Z,11.80
2023-04-24T05:43:29.337Z,12.30
2023-04-24T05:45:57.674Z,15.35
2023-04-24T05:48:26.361Z,12.50
2023-04-24T05:50:54.656Z,13.65
2023-04-24T05:53:22.914Z,11.07
2023-04-24T05:55:51.488Z,14.85
2023-04-24T05:58:19.729Z,15.88
2023-04-24T06:00:48.726Z,13.30
2023-04-24T06:03:17.713Z,14.48
2023-04-24T06:05:46.126Z,15.75
2023-04-24T06:08:14.914Z,12.98
2023-04-24T06:10:43.228Z,16.27
2023-04-24T06:13:11.616Z,19.17
2023-04-24T06:15:40.388Z,13.10
2023-04-24T06:18:08.727Z,13.13
2023-04-24T06:20:37.072Z,15.43
2023-04-24T06:23:05.918Z,11.93
2023-04-24T06:25:34.532Z,12.52
2023-04-24T06:28:04.165Z,14.98
2023-04-24T06:30:32.582Z,16.52
2023-04-24T06:33:09.213Z,12.40
2023-04-24T06:35:47.437Z,17.05
2023-04-24T06:38:15.979Z,14.40
2023-04-24T06:40:44.815Z,18.65
2023-04-24T06:43:13.742Z,11.15
2023-04-24T06:45:42.130Z,9.82
2023-04-24T06:48:10.563Z,15.88
2023-04-24T06:50:38.964Z,11.35
2023-04-24T06:53:07.283Z,13.32
2023-04-24T06:55:35.537Z,10.18
2023-04-24T06:58:03.854Z,10.00
2023-04-24T07:01:05.001Z,10.85
2023-04-24T07:03:33.604Z,13.27
2023-04-24T07:06:02.228Z,13.23
2023-04-24T07:08:32.552Z,14.52
2023-04-24T07:11:01.564Z,11.88
2023-04-24T07:13:29.874Z,15.00
2023-04-24T07:15:58.391Z,16.45
2023-04-24T07:18:26.716Z,13.13
2023-04-24T07:20:54.973Z,12.52
2023-04-24T07:23:23.269Z,11.13
2023-04-24T07:25:51.624Z,13.32
2023-04-24T07:28:20.452Z,13.02
2023-04-24T07:30:48.665Z,13.98
2023-04-24T07:33:17.417Z,12.23
2023-04-24T07:35:45.726Z,13.45
2023-04-24T07:38:14.029Z,12.82
2023-04-24T07:40:42.934Z,16.90
2023-04-24T07:43:11.690Z,11.50
2023-04-24T07:45:41.482Z,13.23
2023-04-24T07:48:10.855Z,13.93
2023-04-24T07:50:39.227Z,13.43
2023-04-24T07:53:07.445Z,12.30
2023-04-24T07:55:35.855Z,15.32
2023-04-24T07:58:04.545Z,14.65
2023-04-24T08:00:32.798Z,15.40
2023-04-24T08:03:01.226Z,12.63
2023-04-24T08:05:30.494Z,11.55
2023-04-24T08:07:58.857Z,10.85
2023-04-24T08:10:27.664Z,14.25
2023-04-24T08:12:57.202Z,15.18
2023-04-24T08:15:25.861Z,12.30
2023-04-24T08:17:54.286Z,9.45
2023-04-24T08:20:22.609Z,17.13
2023-04-24T08:22:51.045Z,14.35
2023-04-24T08:25:20.456Z,13.38
2023-04-24T08:27:48.763Z,13.05
2023-04-24T08:30:17.310Z,11.60
2023-04-24T08:32:46.435Z,9.52
2023-04-24T08:35:14.866Z,11.10
2023-04-24T08:37:43.289Z,14.43
2023-04-24T08:40:16.936Z,12.85
2023-04-24T08:42:46.403Z,11.82
2023-04-24T08:45:15.381Z,13.40
2023-04-24T08:47:44.462Z,14.60
2023-04-24T08:50:13.931Z,16.00
2023-04-24T08:52:44.047Z,13.10
2023-04-24T08:55:12.869Z,15.95
2023-04-24T08:57:42.181Z,13.68
2023-04-24T09:00:12.191Z,14.98
2023-04-24T09:02:54.893Z,15.50
2023-04-24T09:05:27.792Z,11.70
2023-04-24T09:07:58.335Z,13.00
2023-04-24T09:10:27.823Z,14.38
2023-04-24T09:12:57.335Z,13.85
2023-04-24T09:15:26.513Z,11.70
2023-04-24T09:17:54.862Z,14.18
2023-04-24T09:20:23.218Z,16.65
2023-04-24T09:22:57.381Z,14.55
2023-04-24T09:25:33.348Z,15.88
2023-04-24T09:28:07.805Z,11.65
2023-04-24T09:30:36.236Z,12.65
2023-04-24T09:33:16.922Z,14.95
2023-04-24T09:35:54.563Z,11.63
2023-04-24T09:38:44.005Z,13.38
2023-04-24T09:41:16.157Z,13.25
2023-04-24T09:43:45.006Z,22.00
2023-04-24T09:46:13.577Z,13.10
2023-04-24T09:48:42.383Z,18.55
2023-04-24T09:51:13.201Z,20.35
2023-04-24T09:53:41.970Z,16.40
2023-04-24T09:56:16.874Z,17.63
2023-04-24T09:58:45.146Z,17.10
2023-04-24T10:01:13.547Z,16.50
2023-04-24T10:03:45.045Z,18.13
2023-04-24T10:06:15.026Z,16.73
2023-04-24T10:08:44.194Z,13.77
2023-04-24T10:11:13.449Z,16.55
2023-04-24T10:13:42.530Z,15.95
2023-04-24T10:16:11.226Z,14.80
2023-04-24T10:18:41.629Z,15.93
2023-04-24T10:21:09.980Z,14.30
2023-04-24T10:23:39.508Z,18.02
2023-04-24T10:26:08.932Z,19.13
2023-04-24T10:28:39.163Z,15.88
2023-04-24T10:31:08.365Z,16.45
2023-04-24T10:33:37.068Z,14.73
2023-04-24T10:36:06.484Z,12.63
2023-04-24T10:38:36.001Z,12.10
2023-04-24T10:41:12.034Z,11.88
2023-04-24T10:43:42.945Z,9.70
2023-04-24T10:46:14.349Z,13.48
2023-04-24T10:53:44.258Z,12.57
2023-04-24T10:56:12.767Z,20.30
2023-04-24T10:58:46.754Z,12.48
2023-04-24T11:01:29.480Z,12.25
2023-04-24T11:04:04.519Z,14.85
2023-04-24T11:06:39.014Z,15.77
2023-04-24T11:09:09.114Z,15.73
2023-04-24T11:11:39.510Z,16.65
2023-04-24T11:14:09.286Z,12.32
2023-04-24T11:16:41.030Z,11.32
2023-04-24T11:19:20.799Z,14.70
2023-04-24T11:22:06.673Z,16.63
2023-04-24T11:24:50.076Z,12.52
2023-04-24T11:27:23.601Z,17.38
2023-04-24T11:29:58.089Z,18.52
2023-04-24T11:32:35.197Z,13.32
2023-04-24T11:35:29.498Z,17.85
2023-04-24T11:40:29.618Z,15.25
2023-04-24T11:42:58.058Z,16.40
2023-04-24T11:45:31.863Z,12.73
2023-04-24T11:48:00.876Z,15.77
2023-04-24T11:50:30.357Z,11.82
2023-04-24T11:52:59.014Z,11.40
2023-04-24T11:55:29.546Z,12.65
2023-04-24T11:58:00.762Z,14.60
2023-04-24T12:00:36.101Z,13.75
2023-04-24T12:03:14.710Z,10.95
2023-04-24T12:05:43.462Z,12.95
2023-04-24T12:08:11.852Z,13.68
2023-04-24T12:10:40.149Z,11.43
2023-04-24T12:13:13.248Z,17.85
2023-04-24T12:15:42.936Z,13.30
2023-04-24T12:18:15.007Z,11.68
2023-04-24T12:20:43.428Z,10.70
2023-04-24T12:23:11.883Z,14.82
2023-04-24T12:25:42.845Z,16.05
2023-04-24T12:28:13.663Z,13.82
2023-04-24T12:30:50.605Z,13.55
2023-04-24T12:33:23.721Z,14.60
2023-04-24T12:35:57.549Z,16.30
2023-04-24T12:38:28.415Z,17.90
2023-04-24T12:41:08.078Z,19.95
2023-04-24T12:43:37.280Z,16.38
2023-04-24T12:46:06.800Z,18.58
2023-04-24T12:48:35.237Z,13.57
2023-04-24T12:51:03.733Z,16.00
2023-04-24T12:53:32.906Z,17.23
2023-04-24T12:56:01.253Z,13.95
2023-04-24T12:58:32.392Z,15.30
2023-04-24T13:01:00.708Z,15.30
2023-04-24T13:03:29.089Z,13.88
2023-04-24T13:05:57.426Z,14.15
2023-04-24T13:08:25.939Z,17.20
2023-04-24T13:10:55.709Z,14.50
2023-04-24T13:13:24.208Z,18.35
2023-04-24T13:15:52.563Z,16.98
2023-04-24T13:18:21.390Z,15.65
2023-04-24T13:20:50.033Z,12.90
2023-04-24T13:23:21.151Z,14.45
2023-04-24T13:25:49.398Z,16.70
2023-04-24T13:28:17.691Z,16.52
2023-04-24T13:30:46.155Z,15.13
2023-04-24T13:33:14.889Z,18.13
2023-04-24T13:35:43.249Z,15.30
2023-04-24T13:38:12.106Z,16.08
2023-04-24T13:40:40.994Z,18.58
2023-04-24T13:43:09.226Z,15.32
2023-04-24T13:45:37.552Z,17.10
2023-04-24T13:48:05.991Z,16.92
2023-04-24T13:50:34.364Z,16.17
2023-04-24T13:53:03.273Z,15.98
2023-04-24T13:55:31.873Z,14.02
2023-04-24T13:58:01.027Z,15.52
2023-04-24T14:00:30.183Z,16.00
2023-04-24T14:02:58.570Z,14.32
2023-04-24T14:05:27.363Z,15.88
2023-04-24T14:07:55.618Z,20.02
2023-04-24T14:10:23.957Z,16.88
2023-04-24T14:12:53.457Z,14.73
2023-04-24T14:15:21.969Z,14.98
2023-04-24T14:17:51.837Z,11.73
2023-04-24T14:20:20.471Z,15.55
2023-04-24T14:22:49.231Z,20.35
2023-04-24T14:25:17.824Z,13.68
2023-04-24T14:27:46.295Z,14.52
2023-04-24T14:30:15.334Z,17.38
2023-04-24T14:32:43.767Z,15.23
2023-04-24T14:35:12.200Z,15.45
2023-04-24T14:37:42.952Z,20.15
2023-04-24T14:40:29.793Z,21.33
2023-04-24T14:43:00.396Z,21.15
2023-04-24T14:45:29.901Z,18.00
2023-04-24T14:47:58.919Z,16.10
2023-04-24T14:50:29.928Z,17.25
2023-04-24T14:53:03.935Z,15.88
2023-04-24T14:55:33.099Z,19.33
2023-04-24T14:58:01.537Z,16.10
2023-04-24T15:00:30.127Z,23.83
2023-04-24T15:02:58.644Z,21.55
2023-04-24T15:05:27.422Z,24.70
2023-04-24T15:08:00.963Z,20.73
2023-04-24T15:10:35.062Z,21.73
2023-04-24T15:13:06.877Z,19.50
2023-04-24T15:15:39.409Z,19.65
2023-04-24T15:18:10.137Z,21.73
2023-04-24T15:20:38.734Z,20.13
2023-04-24T15:23:11.303Z,22.63
2023-04-24T15:25:40.388Z,19.30
2023-04-24T15:28:08.751Z,20.58
2023-04-24T15:30:37.200Z,21.58
2023-04-24T15:33:08.768Z,20.25
2023-04-24T15:35:40.459Z,21.75
2023-04-24T15:38:08.799Z,19.08
2023-04-24T15:40:37.326Z,17.77
2023-04-24T15:43:05.930Z,21.88
2023-04-24T15:45:35.545Z,21.20
2023-04-24T15:48:06.975Z,18.63
2023-04-24T15:50:38.428Z,15.63
2023-04-24T15:55:38.069Z,14.07
2023-04-24T15:58:06.669Z,16.23
2023-04-24T16:00:38.157Z,18.65
2023-04-24T16:03:10.207Z,24.65
2023-04-24T16:05:39.137Z,16.75
2023-04-24T16:08:08.471Z,14.80
2023-04-24T16:10:36.805Z,15.02
2023-04-24T16:13:05.959Z,16.17
2023-04-24T16:15:37.284Z,19.50
2023-04-24T16:20:36.831Z,16.77
2023-04-24T16:23:06.058Z,15.52
2023-04-24T16:25:34.430Z,15.52
2023-04-24T16:28:02.774Z,15.73
2023-04-24T16:30:31.465Z,17.00
2023-04-24T16:32:59.967Z,22.63
2023-04-24T16:35:28.410Z,17.60
2023-04-24T16:37:57.243Z,14.85
2023-04-24T16:40:26.220Z,16.80
2023-04-24T16:42:55.738Z,15.25
2023-04-24T16:45:24.037Z,14.25
2023-04-24T16:47:52.480Z,16.95
2023-04-24T16:50:27.174Z,15.15
2023-04-24T16:52:56.211Z,15.48
2023-04-24T16:55:26.061Z,19.63
2023-04-24T16:57:57.761Z,15.57
2023-04-24T17:00:26.230Z,16.42
2023-04-24T17:02:54.602Z,17.05
2023-04-24T17:05:24.455Z,13.75
2023-04-24T17:07:52.949Z,15.23
2023-04-24T17:10:23.877Z,17.90
2023-04-24T17:12:54.564Z,15.60
2023-04-24T17:15:28.669Z,19.25
2023-04-24T17:17:58.527Z,19.92
2023-04-24T17:20:31.496Z,22.88
2023-04-24T17:22:59.841Z,17.42
2023-04-24T17:25:31.659Z,22.27
2023-04-24T17:28:36.330Z,18.95
2023-04-24T17:31:14.996Z,16.80
2023-04-24T17:33:43.385Z,15.77
2023-04-24T17:36:15.038Z,17.75
2023-04-24T17:38:43.498Z,15.77
2023-04-24T17:41:11.940Z,15.45
2023-04-24T17:43:43.133Z,15.43
2023-04-24T17:48:39.718Z,19.67
2023-04-24T17:51:07.986Z,20.58
2023-04-24T17:53:37.382Z,18.88
2023-04-24T17:56:05.754Z,20.83
2023-04-24T17:58:37.489Z,18.05
2023-04-24T18:01:08.499Z,18.35
2023-04-24T18:06:08.114Z,16.83
2023-04-24T18:08:36.702Z,15.70
2023-04-24T18:11:15.598Z,18.42
2023-04-24T18:13:43.945Z,19.60
2023-04-24T18:16:12.477Z,16.15
2023-04-24T18:18:40.799Z,16.02
2023-04-24T18:21:15.358Z,20.38
2023-04-24T18:23:43.998Z,15.63
2023-04-24T18:26:19.643Z,16.90
2023-04-24T18:28:48.357Z,17.45
2023-04-24T18:31:19.876Z,19.38
2023-04-24T18:33:50.982Z,12.45
2023-04-24T18:38:47.440Z,14.35
2023-04-24T18:41:36.766Z,13.20
2023-04-24T18:44:07.805Z,17.08
2023-04-24T18:49:13.488Z,14.95
2023-04-24T18:51:53.148Z,13.88
2023-04-24T18:54:23.297Z,14.75
2023-04-24T18:56:52.726Z,15.07
2023-04-24T18:59:22.425Z,12.02
2023-04-24T19:01:50.676Z,12.95
2023-04-24T19:04:21.748Z,10.52
2023-04-24T19:06:56.446Z,13.57
2023-04-24T19:09:24.865Z,12.13
2023-04-24T19:12:04.896Z,11.52
2023-04-24T19:14:39.936Z,13.57
2023-04-24T19:17:10.838Z,13.48
2023-04-24T19:19:43.208Z,14.48
2023-04-24T19:22:13.844Z,11.82
2023-04-24T19:24:42.344Z,13.02
2023-04-24T19:27:11.048Z,11.70
2023-04-24T19:29:39.466Z,9.50
2023-04-24T19:32:10.834Z,8.68
2023-04-24T19:34:40.575Z,10.30
2023-04-24T19:37:09.635Z,12.40
2023-04-24T19:39:38.898Z,10.88
2023-04-24T19:42:11.193Z,9.60
2023-04-24T19:44:39.690Z,10.63
2023-04-24T19:47:08.607Z,9.48
2023-04-24T19:49:40.449Z,9.45
2023-04-24T19:52:08.740Z,6.85
2023-04-24T19:54:39.537Z,9.38
2023-04-24T19:57:07.969Z,8.27
2023-04-24T19:59:38.866Z,8.88
2023-04-24T20:02:11.085Z,10.70
2023-04-24T20:04:40.272Z,10.07
2023-04-24T20:07:11.851Z,13.38
2023-04-24T20:09:40.918Z,12.23
2023-04-24T20:12:10.778Z,7.75
2023-04-24T20:14:39.010Z,8.55
2023-04-24T20:17:10.050Z,10.02
2023-04-24T20:19:41.786Z,12.73
2023-04-24T20:22:13.073Z,6.35
2023-04-24T20:24:42.068Z,9.10
2023-04-24T20:27:11.150Z,8.45
2023-04-24T20:29:39.411Z,6.60
2023-04-24T20:32:11.661Z,9.30
2023-04-24T20:34:40.277Z,9.98
2023-04-24T20:37:11.530Z,7.57
2023-04-24T20:39:40.272Z,11.63
2023-04-24T20:42:14.682Z,8.48
2023-04-24T20:44:43.226Z,8.00
2023-04-24T20:47:12.341Z,10.82
2023-04-24T20:49:41.780Z,9.02
2023-04-24T20:52:10.334Z,8.90
2023-04-24T20:54:39.133Z,10.05
2023-04-24T20:57:07.509Z,7.50
2023-04-24T20:59:35.808Z,8.52
2023-04-24T21:10:16.586Z,9.75
2023-04-24T21:13:11.042Z,9.15
2023-04-24T21:18:46.664Z,10.65
2023-04-24T21:21:15.057Z,11.70
2023-04-24T21:24:03.032Z,11.70
2023-04-24T21:27:15.774Z,10.43
2023-04-24T21:30:01.274Z,7.97
2023-04-24T21:32:33.456Z,10.07
2023-04-24T21:35:13.269Z,7.30
2023-04-24T21:41:12.982Z,6.75
2023-04-24T21:46:14.693Z,7.50
2023-04-24T21:48:43.483Z,8.13
2023-04-24T21:51:15.422Z,8.05
2023-04-24T21:54:13.605Z,7.85
2023-04-24T22:00:12.223Z,8.65
2023-04-24T22:05:18.416Z,9.13
2023-04-24T22:11:25.639Z,8.60
2023-04-24T22:15:13.372Z,8.00
2023-04-24T22:17:44.447Z,8.43
2023-04-24T22:20:17.883Z,10.02
2023-04-24T22:22:57.035Z,7.97
2023-04-24T22:28:17.573Z,10.20
2023-04-24T22:39:58.707Z,8.30
2023-04-24T22:42:44.506Z,8.90
2023-04-24T22:45:16.442Z,7.78
2023-04-24T22:47:45.188Z,10.63
2023-04-24T22:50:19.374Z,10.82
2023-04-24T22:56:16.342Z,14.60
2023-04-24T22:59:16.180Z,17.90
2023-04-24T23:05:15.209Z,15.38
2023-04-24T23:08:15.977Z,11.38
2023-04-24T23:10:47.387Z,16.33
2023-04-24T23:19:20.731Z,16.10
2023-04-24T23:21:49.215Z,10.20
2023-04-24T23:24:18.066Z,12.25
2023-04-24T23:26:46.671Z,14.00
2023-04-24T23:29:24.200Z,17.60
2023-04-24T23:34:49.910Z,10.25
2023-04-24T23:39:49.006Z,12.97
2023-04-24T23:42:17.550Z,13.70
2023-04-24T23:44:51.129Z,10.40
2023-04-24T23:47:28.029Z,9.50
2023-04-24T23:50:36.149Z,9.52
2023-04-24T23:56:47.859Z,11.75
2023-04-24T23:59:25.381Z,8.07
